sensor_id;sensor_type;location;lat;lon;timestamp;pressure;altitude;pressure_sealevel;temperature;humidity
21236;BME280;10775;42.678;26.324;2022-09-14T00:00:51;98498.91;;;20.34;53.09
21236;BME280;10775;42.678;26.324;2022-09-14T00:03:17;98489.59;;;20.27;53.18
21236;BME280;10775;42.678;26.324;2022-09-14T00:05:43;98493.31;;;20.38;52.66
21236;BME280;10775;42.678;26.324;2022-09-14T00:08:09;98497.28;;;20.31;52.81
21236;BME280;10775;42.678;26.324;2022-09-14T00:10:45;98495.97;;;20.24;53.04
21236;BME280;10775;42.678;26.324;2022-09-14T00:13:15;98498.41;;;20.41;52.76
21236;BME280;10775;42.678;26.324;2022-09-14T00:15:41;98489.97;;;20.49;52.66
21236;BME280;10775;42.678;26.324;2022-09-14T00:18:11;98491.22;;;20.44;52.77
21236;BME280;10775;42.678;26.324;2022-09-14T00:20:37;98488.19;;;20.64;51.86
21236;BME280;10775;42.678;26.324;2022-09-14T00:23:03;98493.38;;;20.51;52.36
21236;BME280;10775;42.678;26.324;2022-09-14T00:25:30;98494.28;;;20.23;52.42
21236;BME280;10775;42.678;26.324;2022-09-14T00:27:56;98489.97;;;20.49;52.29
21236;BME280;10775;42.678;26.324;2022-09-14T00:30:22;98495.19;;;20.65;51.71
21236;BME280;10775;42.678;26.324;2022-09-14T00:32:49;98495.56;;;20.45;52.02
21236;BME280;10775;42.678;26.324;2022-09-14T00:35:16;98493.88;;;20.29;52.63
21236;BME280;10775;42.678;26.324;2022-09-14T00:37:42;98497.69;;;20.25;52.82
21236;BME280;10775;42.678;26.324;2022-09-14T00:40:08;98494.25;;;20.09;53.07
21236;BME280;10775;42.678;26.324;2022-09-14T00:42:35;98492.19;;;20.28;52.92
21236;BME280;10775;42.678;26.324;2022-09-14T00:45:06;98494.75;;;20.15;53.02
21236;BME280;10775;42.678;26.324;2022-09-14T00:47:35;98499.19;;;20.29;53.10
21236;BME280;10775;42.678;26.324;2022-09-14T00:50:02;98500.22;;;20.41;52.38
21236;BME280;10775;42.678;26.324;2022-09-14T00:52:30;98496.88;;;20.52;52.18
21236;BME280;10775;42.678;26.324;2022-09-14T00:55:00;98494.81;;;20.42;52.21
21236;BME280;10775;42.678;26.324;2022-09-14T00:57:29;98494.06;;;20.40;51.98
21236;BME280;10775;42.678;26.324;2022-09-14T00:59:56;98493.22;;;20.26;52.46
21236;BME280;10775;42.678;26.324;2022-09-14T01:02:23;98501.44;;;20.07;53.00
21236;BME280;10775;42.678;26.324;2022-09-14T01:04:50;98504.69;;;20.12;53.14
21236;BME280;10775;42.678;26.324;2022-09-14T01:07:29;98505.34;;;20.01;53.40
21236;BME280;10775;42.678;26.324;2022-09-14T01:20:40;98496.16;;;20.35;52.30
21236;BME280;10775;42.678;26.324;2022-09-14T01:23:35;98497.38;;;20.44;51.71
21236;BME280;10775;42.678;26.324;2022-09-14T01:34:15;98487.63;;;20.30;52.22
21236;BME280;10775;42.678;26.324;2022-09-14T01:36:48;98483.84;;;20.20;52.31
21236;BME280;10775;42.678;26.324;2022-09-14T01:39:17;98492.75;;;20.19;52.30
21236;BME280;10775;42.678;26.324;2022-09-14T01:41:45;98487.72;;;20.29;52.45
21236;BME280;10775;42.678;26.324;2022-09-14T01:44:24;98493.09;;;20.41;51.78
21236;BME280;10775;42.678;26.324;2022-09-14T01:46:56;98488.16;;;20.50;51.40
21236;BME280;10775;42.678;26.324;2022-09-14T01:49:32;98484.38;;;20.39;51.64
21236;BME280;10775;42.678;26.324;2022-09-14T01:52:04;98495.19;;;20.22;52.12
21236;BME280;10775;42.678;26.324;2022-09-14T01:55:31;98488.13;;;20.23;52.18
21236;BME280;10775;42.678;26.324;2022-09-14T01:58:09;98484.78;;;20.19;52.40
21236;BME280;10775;42.678;26.324;2022-09-14T02:00:41;98494.44;;;20.06;52.09
21236;BME280;10775;42.678;26.324;2022-09-14T02:03:15;98492.34;;;19.96;52.77
21236;BME280;10775;42.678;26.324;2022-09-14T02:05:58;98487.25;;;20.08;52.38
21236;BME280;10775;42.678;26.324;2022-09-14T02:08:27;98492.28;;;19.98;52.57
21236;BME280;10775;42.678;26.324;2022-09-14T02:10:54;98487.25;;;19.93;52.73
21236;BME280;10775;42.678;26.324;2022-09-14T02:13:21;98495.09;;;20.09;52.25
21236;BME280;10775;42.678;26.324;2022-09-14T02:15:47;98496.72;;;20.12;52.43
21236;BME280;10775;42.678;26.324;2022-09-14T02:18:13;98490.28;;;20.02;52.56
21236;BME280;10775;42.678;26.324;2022-09-14T02:23:16;98492.03;;;19.12;53.50
21236;BME280;10775;42.678;26.324;2022-09-14T02:25:44;98492.88;;;19.59;53.64
21236;BME280;10775;42.678;26.324;2022-09-14T02:28:10;98488.88;;;19.82;53.05
21236;BME280;10775;42.678;26.324;2022-09-14T02:32:05;98499.06;;;19.73;52.86
21236;BME280;10775;42.678;26.324;2022-09-14T02:39:44;98503.78;;;19.38;53.83
21236;BME280;10775;42.678;26.324;2022-09-14T02:42:24;98501.16;;;19.22;54.26
21236;BME280;10775;42.678;26.324;2022-09-14T02:45:17;98500.06;;;19.26;54.34
21236;BME280;10775;42.678;26.324;2022-09-14T02:50:51;98497.00;;;19.18;54.41
21236;BME280;10775;42.678;26.324;2022-09-14T02:53:43;98498.81;;;19.18;54.64
21236;BME280;10775;42.678;26.324;2022-09-14T02:56:10;98499.59;;;19.34;54.22
21236;BME280;10775;42.678;26.324;2022-09-14T02:58:39;98497.47;;;19.41;54.09
21236;BME280;10775;42.678;26.324;2022-09-14T03:01:07;98498.97;;;19.45;53.63
21236;BME280;10775;42.678;26.324;2022-09-14T03:03:33;98492.03;;;19.42;53.67
21236;BME280;10775;42.678;26.324;2022-09-14T03:05:59;98490.94;;;19.46;53.90
21236;BME280;10775;42.678;26.324;2022-09-14T03:08:25;98487.44;;;19.46;53.58
21236;BME280;10775;42.678;26.324;2022-09-14T03:10:51;98484.22;;;19.55;53.24
21236;BME280;10775;42.678;26.324;2022-09-14T03:13:17;98486.84;;;19.71;53.10
21236;BME280;10775;42.678;26.324;2022-09-14T03:15:43;98487.56;;;19.59;52.92
21236;BME280;10775;42.678;26.324;2022-09-14T03:18:09;98490.94;;;19.61;53.10
21236;BME280;10775;42.678;26.324;2022-09-14T03:20:35;98492.56;;;19.63;52.85
21236;BME280;10775;42.678;26.324;2022-09-14T03:23:01;98497.25;;;19.14;52.96
21236;BME280;10775;42.678;26.324;2022-09-14T03:25:27;98498.63;;;18.57;55.34
21236;BME280;10775;42.678;26.324;2022-09-14T03:27:56;98502.34;;;19.02;54.57
21236;BME280;10775;42.678;26.324;2022-09-14T03:30:22;98497.25;;;18.50;54.63
21236;BME280;10775;42.678;26.324;2022-09-14T03:32:48;98504.97;;;19.02;55.03
21236;BME280;10775;42.678;26.324;2022-09-14T03:35:15;98501.13;;;19.08;54.38
21236;BME280;10775;42.678;26.324;2022-09-14T03:37:42;98495.28;;;19.17;54.49
21236;BME280;10775;42.678;26.324;2022-09-14T03:40:10;98497.31;;;19.28;53.96
21236;BME280;10775;42.678;26.324;2022-09-14T03:42:41;98505.75;;;19.34;53.38
21236;BME280;10775;42.678;26.324;2022-09-14T03:45:07;98508.72;;;18.66;51.97
21236;BME280;10775;42.678;26.324;2022-09-14T03:47:33;98504.81;;;19.05;54.58
21236;BME280;10775;42.678;26.324;2022-09-14T03:49:59;98513.00;;;19.01;54.53
21236;BME280;10775;42.678;26.324;2022-09-14T03:52:24;98515.22;;;19.08;54.08
21236;BME280;10775;42.678;26.324;2022-09-14T03:54:50;98514.38;;;18.76;54.42
21236;BME280;10775;42.678;26.324;2022-09-14T03:57:16;98503.03;;;18.90;54.46
21236;BME280;10775;42.678;26.324;2022-09-14T03:59:42;98508.66;;;19.00;54.43
21236;BME280;10775;42.678;26.324;2022-09-14T04:02:07;98507.38;;;18.91;54.21
21236;BME280;10775;42.678;26.324;2022-09-14T04:04:33;98513.66;;;18.41;55.20
21236;BME280;10775;42.678;26.324;2022-09-14T04:06:58;98508.31;;;18.09;56.45
21236;BME280;10775;42.678;26.324;2022-09-14T04:09:24;98510.47;;;18.18;56.65
21236;BME280;10775;42.678;26.324;2022-09-14T04:11:50;98514.91;;;18.83;55.21
21236;BME280;10775;42.678;26.324;2022-09-14T04:14:15;98510.97;;;18.90;54.57
21236;BME280;10775;42.678;26.324;2022-09-14T04:16:41;98509.50;;;19.00;54.66
21236;BME280;10775;42.678;26.324;2022-09-14T04:19:10;98510.06;;;19.21;53.76
21236;BME280;10775;42.678;26.324;2022-09-14T04:21:36;98512.53;;;19.24;53.88
21236;BME280;10775;42.678;26.324;2022-09-14T04:24:02;98508.13;;;19.09;53.99
21236;BME280;10775;42.678;26.324;2022-09-14T04:26:29;98517.69;;;19.11;53.90
21236;BME280;10775;42.678;26.324;2022-09-14T04:28:55;98514.59;;;19.19;53.88
21236;BME280;10775;42.678;26.324;2022-09-14T04:31:22;98512.38;;;19.11;53.91
21236;BME280;10775;42.678;26.324;2022-09-14T04:33:48;98523.25;;;19.23;53.65
21236;BME280;10775;42.678;26.324;2022-09-14T04:36:20;98515.19;;;19.24;53.47
21236;BME280;10775;42.678;26.324;2022-09-14T04:38:47;98526.97;;;19.34;53.15
21236;BME280;10775;42.678;26.324;2022-09-14T04:41:16;98525.34;;;19.32;53.33
21236;BME280;10775;42.678;26.324;2022-09-14T04:43:43;98532.09;;;19.22;53.56
21236;BME280;10775;42.678;26.324;2022-09-14T04:46:11;98530.25;;;19.54;52.68
21236;BME280;10775;42.678;26.324;2022-09-14T04:48:37;98532.91;;;19.54;52.59
21236;BME280;10775;42.678;26.324;2022-09-14T04:51:09;98538.59;;;19.62;52.38
21236;BME280;10775;42.678;26.324;2022-09-14T04:53:37;98547.47;;;19.77;51.87
21236;BME280;10775;42.678;26.324;2022-09-14T04:56:04;98546.25;;;19.83;51.92
21236;BME280;10775;42.678;26.324;2022-09-14T04:58:31;98546.25;;;19.83;51.61
21236;BME280;10775;42.678;26.324;2022-09-14T05:01:06;98541.63;;;20.01;51.58
21236;BME280;10775;42.678;26.324;2022-09-14T05:03:33;98540.69;;;20.02;51.18
21236;BME280;10775;42.678;26.324;2022-09-14T05:06:06;98533.50;;;19.89;51.14
21236;BME280;10775;42.678;26.324;2022-09-14T05:08:32;98540.91;;;19.68;51.99
21236;BME280;10775;42.678;26.324;2022-09-14T05:10:59;98544.16;;;19.58;51.71
21236;BME280;10775;42.678;26.324;2022-09-14T05:13:25;98536.59;;;18.89;52.59
21236;BME280;10775;42.678;26.324;2022-09-14T05:15:51;98531.38;;;18.88;54.31
21236;BME280;10775;42.678;26.324;2022-09-14T05:18:17;98535.81;;;19.49;52.93
21236;BME280;10775;42.678;26.324;2022-09-14T05:20:43;98544.72;;;19.79;51.90
21236;BME280;10775;42.678;26.324;2022-09-14T05:23:08;98542.28;;;19.90;51.44
21236;BME280;10775;42.678;26.324;2022-09-14T05:25:34;98546.44;;;19.94;51.22
21236;BME280;10775;42.678;26.324;2022-09-14T05:28:02;98548.25;;;19.93;51.22
21236;BME280;10775;42.678;26.324;2022-09-14T05:30:28;98552.91;;;20.04;51.10
21236;BME280;10775;42.678;26.324;2022-09-14T05:32:54;98555.47;;;20.06;50.90
21236;BME280;10775;42.678;26.324;2022-09-14T05:35:19;98544.22;;;20.02;50.74
21236;BME280;10775;42.678;26.324;2022-09-14T05:37:45;98551.41;;;20.00;51.07
21236;BME280;10775;42.678;26.324;2022-09-14T05:40:11;98548.38;;;20.06;50.66
21236;BME280;10775;42.678;26.324;2022-09-14T05:42:37;98544.09;;;20.32;50.05
21236;BME280;10775;42.678;26.324;2022-09-14T05:45:03;98550.28;;;20.18;50.36
21236;BME280;10775;42.678;26.324;2022-09-14T05:47:29;98549.53;;;20.31;49.70
21236;BME280;10775;42.678;26.324;2022-09-14T05:49:56;98554.00;;;20.59;49.48
21236;BME280;10775;42.678;26.324;2022-09-14T05:52:22;98548.16;;;20.81;49.03
21236;BME280;10775;42.678;26.324;2022-09-14T05:54:47;98553.69;;;20.78;49.36
21236;BME280;10775;42.678;26.324;2022-09-14T05:57:13;98557.59;;;20.72;49.63
21236;BME280;10775;42.678;26.324;2022-09-14T05:59:39;98549.22;;;20.78;49.31
21236;BME280;10775;42.678;26.324;2022-09-14T06:02:05;98551.09;;;20.91;48.68
21236;BME280;10775;42.678;26.324;2022-09-14T06:04:30;98548.22;;;20.94;49.31
21236;BME280;10775;42.678;26.324;2022-09-14T06:06:56;98555.91;;;20.98;49.21
21236;BME280;10775;42.678;26.324;2022-09-14T06:09:21;98558.84;;;20.94;49.25
21236;BME280;10775;42.678;26.324;2022-09-14T06:11:47;98565.13;;;20.93;49.35
21236;BME280;10775;42.678;26.324;2022-09-14T06:14:13;98554.13;;;20.99;49.33
21236;BME280;10775;42.678;26.324;2022-09-14T06:16:43;98554.88;;;21.01;49.08
21236;BME280;10775;42.678;26.324;2022-09-14T06:19:09;98552.66;;;21.08;49.10
21236;BME280;10775;42.678;26.324;2022-09-14T06:21:36;98557.28;;;21.18;48.80
21236;BME280;10775;42.678;26.324;2022-09-14T06:24:02;98560.75;;;21.33;48.45
21236;BME280;10775;42.678;26.324;2022-09-14T06:26:31;98562.84;;;21.28;48.62
21236;BME280;10775;42.678;26.324;2022-09-14T06:28:58;98558.00;;;21.35;48.66
21236;BME280;10775;42.678;26.324;2022-09-14T06:31:24;98570.06;;;21.40;48.29
21236;BME280;10775;42.678;26.324;2022-09-14T06:33:50;98562.44;;;21.34;48.72
21236;BME280;10775;42.678;26.324;2022-09-14T06:36:19;98553.88;;;21.16;48.75
21236;BME280;10775;42.678;26.324;2022-09-14T06:38:46;98556.69;;;21.27;48.53
21236;BME280;10775;42.678;26.324;2022-09-14T06:41:16;98558.72;;;21.37;47.87
21236;BME280;10775;42.678;26.324;2022-09-14T06:43:42;98557.84;;;21.51;48.25
21236;BME280;10775;42.678;26.324;2022-09-14T06:46:12;98557.31;;;22.36;46.49
21236;BME280;10775;42.678;26.324;2022-09-14T06:48:42;98554.47;;;23.50;43.86
21236;BME280;10775;42.678;26.324;2022-09-14T06:51:12;98567.38;;;23.92;42.94
21236;BME280;10775;42.678;26.324;2022-09-14T06:53:39;98563.19;;;24.34;42.15
21236;BME280;10775;42.678;26.324;2022-09-14T06:56:04;98564.56;;;24.62;41.47
21236;BME280;10775;42.678;26.324;2022-09-14T06:58:32;98557.25;;;24.87;41.47
21236;BME280;10775;42.678;26.324;2022-09-14T07:01:10;98562.69;;;25.19;40.58
21236;BME280;10775;42.678;26.324;2022-09-14T07:03:38;98569.63;;;25.86;39.60
21236;BME280;10775;42.678;26.324;2022-09-14T07:06:16;98577.06;;;26.24;38.95
21236;BME280;10775;42.678;26.324;2022-09-14T07:08:43;98567.16;;;26.67;37.31
21236;BME280;10775;42.678;26.324;2022-09-14T07:11:11;98572.47;;;26.36;37.79
21236;BME280;10775;42.678;26.324;2022-09-14T07:13:37;98568.00;;;26.67;37.75
21236;BME280;10775;42.678;26.324;2022-09-14T07:16:03;98581.31;;;26.88;36.47
21236;BME280;10775;42.678;26.324;2022-09-14T07:18:30;98573.91;;;26.61;37.59
21236;BME280;10775;42.678;26.324;2022-09-14T07:21:02;98567.16;;;26.67;37.18
21236;BME280;10775;42.678;26.324;2022-09-14T07:23:28;98565.66;;;26.53;37.47
21236;BME280;10775;42.678;26.324;2022-09-14T07:26:02;98568.72;;;27.20;36.81
21236;BME280;10775;42.678;26.324;2022-09-14T07:28:28;98569.34;;;26.93;36.66
21236;BME280;10775;42.678;26.324;2022-09-14T07:30:54;98564.25;;;26.89;36.92
21236;BME280;10775;42.678;26.324;2022-09-14T07:33:20;98564.94;;;26.82;37.61
21236;BME280;10775;42.678;26.324;2022-09-14T07:35:45;98565.50;;;26.24;37.58
21236;BME280;10775;42.678;26.324;2022-09-14T07:38:11;98564.06;;;26.20;39.08
21236;BME280;10775;42.678;26.324;2022-09-14T07:40:37;98560.50;;;26.71;37.61
21236;BME280;10775;42.678;26.324;2022-09-14T07:43:03;98564.91;;;26.72;37.69
21236;BME280;10775;42.678;26.324;2022-09-14T07:45:29;98559.31;;;26.85;37.38
21236;BME280;10775;42.678;26.324;2022-09-14T07:47:55;98558.53;;;27.14;37.29
21236;BME280;10775;42.678;26.324;2022-09-14T07:50:21;98559.22;;;26.65;37.92
21236;BME280;10775;42.678;26.324;2022-09-14T07:52:50;98560.53;;;27.21;37.27
21236;BME280;10775;42.678;26.324;2022-09-14T07:55:17;98556.63;;;27.54;35.95
21236;BME280;10775;42.678;26.324;2022-09-14T07:57:43;98563.97;;;27.62;36.06
21236;BME280;10775;42.678;26.324;2022-09-14T08:00:09;98565.09;;;27.60;36.24
21236;BME280;10775;42.678;26.324;2022-09-14T08:02:35;98560.84;;;27.67;36.36
21236;BME280;10775;42.678;26.324;2022-09-14T08:05:01;98555.19;;;27.60;36.11
21236;BME280;10775;42.678;26.324;2022-09-14T08:07:27;98568.47;;;27.52;35.95
21236;BME280;10775;42.678;26.324;2022-09-14T08:09:53;98564.66;;;27.25;35.60
21236;BME280;10775;42.678;26.324;2022-09-14T08:12:19;98554.59;;;27.27;36.68
21236;BME280;10775;42.678;26.324;2022-09-14T08:14:44;98560.84;;;27.47;34.40
21236;BME280;10775;42.678;26.324;2022-09-14T08:17:10;98564.44;;;27.17;37.28
21236;BME280;10775;42.678;26.324;2022-09-14T08:19:36;98560.72;;;27.49;36.69
21236;BME280;10775;42.678;26.324;2022-09-14T08:22:03;98563.50;;;26.78;35.72
21236;BME280;10775;42.678;26.324;2022-09-14T08:24:29;98547.97;;;27.22;37.46
21236;BME280;10775;42.678;26.324;2022-09-14T08:26:55;98548.00;;;27.41;36.79
21236;BME280;10775;42.678;26.324;2022-09-14T08:29:22;98546.47;;;26.88;37.65
21236;BME280;10775;42.678;26.324;2022-09-14T08:31:48;98547.19;;;26.91;37.83
21236;BME280;10775;42.678;26.324;2022-09-14T08:34:16;98552.50;;;26.81;35.71
21236;BME280;10775;42.678;26.324;2022-09-14T08:36:42;98557.84;;;26.71;38.33
21236;BME280;10775;42.678;26.324;2022-09-14T08:39:10;98545.94;;;26.95;38.01
21236;BME280;10775;42.678;26.324;2022-09-14T08:41:39;98544.13;;;27.05;37.25
21236;BME280;10775;42.678;26.324;2022-09-14T08:46:46;98539.94;;;27.61;36.38
21236;BME280;10775;42.678;26.324;2022-09-14T08:49:21;98543.34;;;27.43;36.30
21236;BME280;10775;42.678;26.324;2022-09-14T08:51:49;98541.88;;;27.20;37.02
21236;BME280;10775;42.678;26.324;2022-09-14T08:54:15;98542.44;;;27.14;37.06
21236;BME280;10775;42.678;26.324;2022-09-14T08:56:44;98531.41;;;26.97;37.45
21236;BME280;10775;42.678;26.324;2022-09-14T08:59:39;98531.75;;;26.73;37.69
21236;BME280;10775;42.678;26.324;2022-09-14T09:04:57;98527.59;;;27.00;37.03
21236;BME280;10775;42.678;26.324;2022-09-14T09:10:21;98517.28;;;27.05;35.63
21236;BME280;10775;42.678;26.324;2022-09-14T09:12:51;98520.88;;;26.75;35.97
21236;BME280;10775;42.678;26.324;2022-09-14T09:18:00;98539.06;;;25.56;37.61
21236;BME280;10775;42.678;26.324;2022-09-14T09:20:44;98545.13;;;25.91;39.08
21236;BME280;10775;42.678;26.324;2022-09-14T09:23:23;98540.59;;;26.12;37.29
21236;BME280;10775;42.678;26.324;2022-09-14T09:26:24;98538.03;;;26.53;38.01
21236;BME280;10775;42.678;26.324;2022-09-14T09:28:54;98528.38;;;26.50;36.46
21236;BME280;10775;42.678;26.324;2022-09-14T09:31:33;98526.91;;;26.57;37.28
21236;BME280;10775;42.678;26.324;2022-09-14T09:34:00;98520.72;;;26.36;37.78
21236;BME280;10775;42.678;26.324;2022-09-14T09:36:33;98517.81;;;26.49;36.26
21236;BME280;10775;42.678;26.324;2022-09-14T09:39:00;98521.13;;;26.62;36.48
21236;BME280;10775;42.678;26.324;2022-09-14T09:41:28;98520.28;;;26.61;37.45
21236;BME280;10775;42.678;26.324;2022-09-14T09:44:03;98514.25;;;26.48;37.86
21236;BME280;10775;42.678;26.324;2022-09-14T09:46:44;98505.06;;;26.62;37.45
21236;BME280;10775;42.678;26.324;2022-09-14T09:52:10;98513.09;;;26.31;38.85
21236;BME280;10775;42.678;26.324;2022-09-14T09:54:49;98499.47;;;26.13;37.56
21236;BME280;10775;42.678;26.324;2022-09-14T09:57:33;98506.75;;;25.05;39.23
21236;BME280;10775;42.678;26.324;2022-09-14T10:02:46;98495.53;;;26.17;38.75
21236;BME280;10775;42.678;26.324;2022-09-14T10:05:25;98492.81;;;26.38;38.97
21236;BME280;10775;42.678;26.324;2022-09-14T10:08:03;98492.63;;;26.30;37.69
21236;BME280;10775;42.678;26.324;2022-09-14T10:10:39;98494.22;;;24.62;37.20
21236;BME280;10775;42.678;26.324;2022-09-14T10:13:38;98500.47;;;25.59;37.83
21236;BME280;10775;42.678;26.324;2022-09-14T10:16:24;98507.09;;;25.97;38.19
21236;BME280;10775;42.678;26.324;2022-09-14T10:18:54;98505.16;;;25.99;39.35
21236;BME280;10775;42.678;26.324;2022-09-14T10:21:24;98490.28;;;25.85;36.56
21236;BME280;10775;42.678;26.324;2022-09-14T10:24:15;98493.06;;;25.63;35.35
21236;BME280;10775;42.678;26.324;2022-09-14T10:26:42;98479.78;;;26.24;38.75
21236;BME280;10775;42.678;26.324;2022-09-14T10:29:50;98477.88;;;26.45;38.13
21236;BME280;10775;42.678;26.324;2022-09-14T10:32:18;98476.00;;;26.36;37.05
21236;BME280;10775;42.678;26.324;2022-09-14T10:34:46;98469.22;;;26.63;37.93
21236;BME280;10775;42.678;26.324;2022-09-14T10:45:51;98453.78;;;26.15;38.89
21236;BME280;10775;42.678;26.324;2022-09-14T10:48:29;98455.06;;;26.51;37.26
21236;BME280;10775;42.678;26.324;2022-09-14T10:53:54;98445.09;;;26.32;35.19
21236;BME280;10775;42.678;26.324;2022-09-14T10:56:22;98449.72;;;26.61;38.48
21236;BME280;10775;42.678;26.324;2022-09-14T11:02:16;98454.72;;;27.04;37.43
21236;BME280;10775;42.678;26.324;2022-09-14T11:10:21;98458.53;;;26.42;34.28
21236;BME280;10775;42.678;26.324;2022-09-14T11:13:32;98457.38;;;26.75;37.03
21236;BME280;10775;42.678;26.324;2022-09-14T11:16:05;98451.50;;;27.10;35.51
21236;BME280;10775;42.678;26.324;2022-09-14T11:21:42;98446.31;;;27.19;34.06
21236;BME280;10775;42.678;26.324;2022-09-14T11:24:24;98444.00;;;26.85;36.77
21236;BME280;10775;42.678;26.324;2022-09-14T11:29:54;98433.56;;;27.11;35.37
21236;BME280;10775;42.678;26.324;2022-09-14T11:32:28;98439.53;;;27.24;36.27
21236;BME280;10775;42.678;26.324;2022-09-14T11:35:18;98424.84;;;27.28;36.60
21236;BME280;10775;42.678;26.324;2022-09-14T11:37:54;98426.09;;;27.05;33.42
21236;BME280;10775;42.678;26.324;2022-09-14T11:40:32;98423.00;;;27.00;37.91
21236;BME280;10775;42.678;26.324;2022-09-14T11:45:33;98423.25;;;27.55;35.66
21236;BME280;10775;42.678;26.324;2022-09-14T11:53:57;98429.91;;;27.31;35.55
21236;BME280;10775;42.678;26.324;2022-09-14T11:56:32;98422.41;;;27.45;33.11
21236;BME280;10775;42.678;26.324;2022-09-14T11:59:05;98417.31;;;27.51;32.28
21236;BME280;10775;42.678;26.324;2022-09-14T12:01:38;98404.31;;;27.47;32.57
21236;BME280;10775;42.678;26.324;2022-09-14T12:04:07;98406.66;;;27.79;32.20
21236;BME280;10775;42.678;26.324;2022-09-14T12:11:53;98393.06;;;27.81;31.69
21236;BME280;10775;42.678;26.324;2022-09-14T12:14:26;98391.53;;;27.78;31.68
21236;BME280;10775;42.678;26.324;2022-09-14T12:17:02;98383.97;;;27.54;33.33
21236;BME280;10775;42.678;26.324;2022-09-14T12:19:29;98376.50;;;27.48;31.75
21236;BME280;10775;42.678;26.324;2022-09-14T12:21:56;98374.63;;;27.58;34.60
21236;BME280;10775;42.678;26.324;2022-09-14T12:24:21;98358.16;;;27.43;34.47
21236;BME280;10775;42.678;26.324;2022-09-14T12:26:47;98362.09;;;27.49;32.18
21236;BME280;10775;42.678;26.324;2022-09-14T12:29:42;98358.25;;;27.61;35.39
21236;BME280;10775;42.678;26.324;2022-09-14T12:32:27;98355.94;;;27.00;33.78
21236;BME280;10775;42.678;26.324;2022-09-14T12:37:57;98347.44;;;27.43;32.19
21236;BME280;10775;42.678;26.324;2022-09-14T12:40:32;98360.53;;;27.56;36.52
21236;BME280;10775;42.678;26.324;2022-09-14T12:54:07;98350.13;;;27.71;31.53
21236;BME280;10775;42.678;26.324;2022-09-14T13:00:14;98341.59;;;27.48;34.46
21236;BME280;10775;42.678;26.324;2022-09-14T13:02:58;98337.34;;;27.55;34.57
21236;BME280;10775;42.678;26.324;2022-09-14T13:05:28;98341.09;;;27.05;37.36
21236;BME280;10775;42.678;26.324;2022-09-14T13:07:56;98328.38;;;27.17;36.25
21236;BME280;10775;42.678;26.324;2022-09-14T13:10:32;98328.53;;;27.16;32.93
21236;BME280;10775;42.678;26.324;2022-09-14T13:13:00;98329.78;;;27.41;33.12
21236;BME280;10775;42.678;26.324;2022-09-14T13:15:30;98334.13;;;27.51;34.47
21236;BME280;10775;42.678;26.324;2022-09-14T13:20:29;98333.88;;;27.72;31.07
21236;BME280;10775;42.678;26.324;2022-09-14T13:22:55;98330.19;;;27.73;30.68
21236;BME280;10775;42.678;26.324;2022-09-14T13:25:31;98336.59;;;27.63;31.33
21236;BME280;10775;42.678;26.324;2022-09-14T13:27:59;98340.50;;;27.78;31.17
21236;BME280;10775;42.678;26.324;2022-09-14T13:30:26;98335.19;;;28.06;30.86
21236;BME280;10775;42.678;26.324;2022-09-14T13:32:56;98339.41;;;28.08;30.40
21236;BME280;10775;42.678;26.324;2022-09-14T13:35:44;98339.56;;;27.69;32.31
21236;BME280;10775;42.678;26.324;2022-09-14T13:38:17;98337.84;;;27.68;33.12
21236;BME280;10775;42.678;26.324;2022-09-14T13:40:44;98346.81;;;27.59;30.58
21236;BME280;10775;42.678;26.324;2022-09-14T13:43:11;98344.47;;;27.17;31.02
21236;BME280;10775;42.678;26.324;2022-09-14T13:45:38;98341.00;;;27.64;33.80
21236;BME280;10775;42.678;26.324;2022-09-14T13:48:04;98344.28;;;27.48;30.97
21236;BME280;10775;42.678;26.324;2022-09-14T13:50:31;98354.59;;;27.43;31.71
21236;BME280;10775;42.678;26.324;2022-09-14T13:52:57;98344.56;;;27.45;33.16
21236;BME280;10775;42.678;26.324;2022-09-14T13:55:40;98354.84;;;27.69;32.63
21236;BME280;10775;42.678;26.324;2022-09-14T13:58:19;98358.50;;;27.58;31.25
21236;BME280;10775;42.678;26.324;2022-09-14T14:05:55;98358.38;;;27.60;30.40
21236;BME280;10775;42.678;26.324;2022-09-14T14:08:39;98355.56;;;27.61;33.48
21236;BME280;10775;42.678;26.324;2022-09-14T14:11:06;98352.16;;;27.59;31.38
21236;BME280;10775;42.678;26.324;2022-09-14T14:13:34;98358.56;;;27.48;33.79
21236;BME280;10775;42.678;26.324;2022-09-14T14:16:19;98364.94;;;27.38;30.48
21236;BME280;10775;42.678;26.324;2022-09-14T14:18:56;98362.91;;;27.59;33.56
21236;BME280;10775;42.678;26.324;2022-09-14T14:21:29;98358.50;;;27.68;29.83
21236;BME280;10775;42.678;26.324;2022-09-14T14:24:31;98364.44;;;27.71;31.71
21236;BME280;10775;42.678;26.324;2022-09-14T14:26:57;98364.28;;;27.63;30.69
21236;BME280;10775;42.678;26.324;2022-09-14T14:29:24;98365.81;;;27.75;33.72
21236;BME280;10775;42.678;26.324;2022-09-14T14:31:50;98357.31;;;27.90;34.67
21236;BME280;10775;42.678;26.324;2022-09-14T14:34:27;98364.56;;;27.70;33.03
21236;BME280;10775;42.678;26.324;2022-09-14T14:36:54;98360.19;;;27.69;30.83
21236;BME280;10775;42.678;26.324;2022-09-14T14:39:24;98359.94;;;27.62;31.37
21236;BME280;10775;42.678;26.324;2022-09-14T14:41:50;98355.81;;;27.68;29.55
21236;BME280;10775;42.678;26.324;2022-09-14T14:44:22;98361.16;;;27.78;33.10
21236;BME280;10775;42.678;26.324;2022-09-14T14:46:49;98355.97;;;27.66;29.30
21236;BME280;10775;42.678;26.324;2022-09-14T14:49:17;98351.69;;;27.73;29.80
21236;BME280;10775;42.678;26.324;2022-09-14T14:51:45;98352.88;;;27.61;30.78
21236;BME280;10775;42.678;26.324;2022-09-14T14:54:10;98350.88;;;27.63;29.96
21236;BME280;10775;42.678;26.324;2022-09-14T14:56:37;98357.25;;;27.62;29.25
21236;BME280;10775;42.678;26.324;2022-09-14T15:01:46;98349.78;;;27.56;32.93